Hayden, Missouri
Current Conditions -  °F | °C
As of 5:58 PM on Wednesday 26 Nov 2014 (Local Time) from KTBN Reporting Station
Overcast Overcast  
Wind Chill: 33°   Ceiling: 5000
Heat Index: 39°   Visibility: 10mi
Dew Point: 34°   Wind: 8mph
Humidity: 84%   Direction: 290°WNW
Pressure: 30.06"   Gusts: NA
Location:  38.001°N, 92.0596°W
Report Text: KTBN 262358Z AUTO 29007KT 10SM FEW031 OVC050 04/01 A3006 RMK AO2 SLP191 60007 T00370012 10052 20021 52024
Loading
Personal Weather Stations






























Interactive Weather Map New forecast layout! Learn more

10-Day Weather Forecast

Advertisements
Track Severe Weather on mobile